sensor_id;sensor_type;location;lat;lon;timestamp;pressure;altitude;pressure_sealevel;temperature;humidity
34185;BME280;20454;48.100;11.776;2022-12-18T07:00:42;96637.13;;;-3.83;95.20
34185;BME280;20454;48.100;11.776;2022-12-18T07:03:08;96634.19;;;-3.81;95.13
34185;BME280;20454;48.100;11.776;2022-12-18T07:05:33;96629.41;;;-3.86;94.82
34185;BME280;20454;48.100;11.776;2022-12-18T07:07:59;96633.78;;;-3.85;95.24
34185;BME280;20454;48.100;11.776;2022-12-18T07:10:25;96645.91;;;-3.81;95.94
34185;BME280;20454;48.100;11.776;2022-12-18T07:12:51;96653.03;;;-3.73;94.68
34185;BME280;20454;48.100;11.776;2022-12-18T07:15:16;96653.84;;;-3.86;94.60
34185;BME280;20454;48.100;11.776;2022-12-18T07:17:42;96662.00;;;-3.86;95.25
34185;BME280;20454;48.100;11.776;2022-12-18T07:20:08;96655.91;;;-3.88;95.25
34185;BME280;20454;48.100;11.776;2022-12-18T07:22:34;96665.34;;;-3.84;95.65
34185;BME280;20454;48.100;11.776;2022-12-18T07:25:00;96665.75;;;-3.87;96.10
34185;BME280;20454;48.100;11.776;2022-12-18T07:27:25;96664.28;;;-3.83;95.82
34185;BME280;20454;48.100;11.776;2022-12-18T07:29:51;96676.00;;;-3.82;96.03
34185;BME280;20454;48.100;11.776;2022-12-18T07:32:16;96662.44;;;-3.82;95.49
34185;BME280;20454;48.100;11.776;2022-12-18T07:34:42;96684.38;;;-3.77;95.57
34185;BME280;20454;48.100;11.776;2022-12-18T07:37:08;96666.38;;;-3.78;95.40
34185;BME280;20454;48.100;11.776;2022-12-18T07:39:33;96675.63;;;-3.73;95.00
34185;BME280;20454;48.100;11.776;2022-12-18T07:41:59;96673.50;;;-3.77;94.94
34185;BME280;20454;48.100;11.776;2022-12-18T07:44:43;96681.88;;;-3.72;95.26
34185;BME280;20454;48.100;11.776;2022-12-18T07:47:09;96682.06;;;-3.74;95.19
34185;BME280;20454;48.100;11.776;2022-12-18T07:49:35;96667.63;;;-3.81;95.32
34185;BME280;20454;48.100;11.776;2022-12-18T07:52:00;96671.00;;;-3.72;94.81
34185;BME280;20454;48.100;11.776;2022-12-18T07:54:27;96671.63;;;-3.70;94.98
34185;BME280;20454;48.100;11.776;2022-12-18T07:56:52;96669.75;;;-3.70;94.85
34185;BME280;20454;48.100;11.776;2022-12-18T07:59:18;96660.97;;;-3.78;94.16
34185;BME280;20454;48.100;11.776;2022-12-18T08:01:44;96667.66;;;-3.74;93.71
34185;BME280;20454;48.100;11.776;2022-12-18T08:04:09;96666.19;;;-3.77;94.57
34185;BME280;20454;48.100;11.776;2022-12-18T08:06:35;96669.97;;;-3.78;94.04
34185;BME280;20454;48.100;11.776;2022-12-18T08:09:01;96662.63;;;-3.77;94.19
34185;BME280;20454;48.100;11.776;2022-12-18T08:11:27;96659.94;;;-3.71;94.54
34185;BME280;20454;48.100;11.776;2022-12-18T08:13:53;96665.19;;;-3.63;92.49
34185;BME280;20454;48.100;11.776;2022-12-18T08:16:21;96674.56;;;-3.72;92.71
34185;BME280;20454;48.100;11.776;2022-12-18T08:18:47;96665.56;;;-3.79;93.14
34185;BME280;20454;48.100;11.776;2022-12-18T08:21:18;96683.34;;;-3.76;93.59
34185;BME280;20454;48.100;11.776;2022-12-18T08:23:44;96683.13;;;-3.81;93.53
34185;BME280;20454;48.100;11.776;2022-12-18T08:26:11;96698.81;;;-3.77;93.59
34185;BME280;20454;48.100;11.776;2022-12-18T08:28:37;96694.00;;;-3.75;93.31
34185;BME280;20454;48.100;11.776;2022-12-18T08:31:03;96698.81;;;-3.77;93.56
34185;BME280;20454;48.100;11.776;2022-12-18T08:33:29;96700.06;;;-3.79;92.84
34185;BME280;20454;48.100;11.776;2022-12-18T08:35:54;96705.06;;;-3.83;92.67
34185;BME280;20454;48.100;11.776;2022-12-18T08:38:23;96704.44;;;-3.85;92.45
34185;BME280;20454;48.100;11.776;2022-12-18T08:40:49;96701.91;;;-3.93;92.06
34185;BME280;20454;48.100;11.776;2022-12-18T08:43:14;96701.25;;;-3.95;93.05
34185;BME280;20454;48.100;11.776;2022-12-18T08:45:58;96703.16;;;-3.95;92.57
34185;BME280;20454;48.100;11.776;2022-12-18T08:48:24;96700.44;;;-3.95;93.55
34185;BME280;20454;48.100;11.776;2022-12-18T08:50:57;96695.63;;;-3.93;93.16
34185;BME280;20454;48.100;11.776;2022-12-18T08:53:23;96714.03;;;-3.89;93.60
34185;BME280;20454;48.100;11.776;2022-12-18T08:55:49;96700.25;;;-3.87;93.13
34185;BME280;20454;48.100;11.776;2022-12-18T08:58:15;96696.91;;;-3.89;92.69
34185;BME280;20454;48.100;11.776;2022-12-18T09:00:40;96691.47;;;-3.89;92.76
34185;BME280;20454;48.100;11.776;2022-12-18T09:03:14;96701.28;;;-3.82;93.36
34185;BME280;20454;48.100;11.776;2022-12-18T09:05:40;96699.38;;;-3.88;92.29
34185;BME280;20454;48.100;11.776;2022-12-18T09:08:06;96711.53;;;-3.90;92.70
34185;BME280;20454;48.100;11.776;2022-12-18T09:10:31;96704.81;;;-3.88;92.86
34185;BME280;20454;48.100;11.776;2022-12-18T09:12:57;96709.63;;;-3.90;92.50
34185;BME280;20454;48.100;11.776;2022-12-18T09:15:23;96714.44;;;-3.85;93.07
34185;BME280;20454;48.100;11.776;2022-12-18T09:17:49;96706.91;;;-3.90;92.10
34185;BME280;20454;48.100;11.776;2022-12-18T09:20:16;96722.41;;;-3.84;92.74
34185;BME280;20454;48.100;11.776;2022-12-18T09:22:42;96716.16;;;-3.78;93.07
34185;BME280;20454;48.100;11.776;2022-12-18T09:25:07;96694.00;;;-3.81;92.73
34185;BME280;20454;48.100;11.776;2022-12-18T09:27:34;96703.44;;;-3.71;92.65
34185;BME280;20454;48.100;11.776;2022-12-18T09:30:00;96701.97;;;-3.67;92.98
34185;BME280;20454;48.100;11.776;2022-12-18T09:32:26;96698.66;;;-3.62;91.26
34185;BME280;20454;48.100;11.776;2022-12-18T09:34:51;96702.81;;;-3.66;91.30
34185;BME280;20454;48.100;11.776;2022-12-18T09:37:17;96700.94;;;-3.66;90.07
34185;BME280;20454;48.100;11.776;2022-12-18T09:39:43;96701.09;;;-3.74;89.86
34185;BME280;20454;48.100;11.776;2022-12-18T09:42:17;96712.81;;;-3.73;91.32
34185;BME280;20454;48.100;11.776;2022-12-18T09:44:46;96706.53;;;-3.74;91.16
34185;BME280;20454;48.100;11.776;2022-12-18T09:47:56;96713.84;;;-3.81;91.48
34185;BME280;20454;48.100;11.776;2022-12-18T09:50:06;96716.16;;;-3.78;91.63
34185;BME280;20454;48.100;11.776;2022-12-18T09:52:43;96709.25;;;-3.74;92.62
34185;BME280;20454;48.100;11.776;2022-12-18T10:05:49;96686.94;;;-3.69;90.27
34185;BME280;20454;48.100;11.776;2022-12-18T10:08:35;96692.56;;;-3.71;90.70
34185;BME280;20454;48.100;11.776;2022-12-18T10:14:17;96685.22;;;-3.77;90.95
34185;BME280;20454;48.100;11.776;2022-12-18T10:22:13;96677.72;;;-3.68;91.69
34185;BME280;20454;48.100;11.776;2022-12-18T10:25:09;96674.78;;;-3.67;91.06
34185;BME280;20454;48.100;11.776;2022-12-18T10:27:39;96664.94;;;-3.68;90.55
34185;BME280;20454;48.100;11.776;2022-12-18T10:30:24;96657.22;;;-3.71;91.13
34185;BME280;20454;48.100;11.776;2022-12-18T10:32:50;96658.69;;;-3.68;90.88
34185;BME280;20454;48.100;11.776;2022-12-18T10:35:25;96664.31;;;-3.63;90.97
34185;BME280;20454;48.100;11.776;2022-12-18T10:43:20;96649.06;;;-3.64;90.60
34185;BME280;20454;48.100;11.776;2022-12-18T10:46:15;96650.16;;;-3.59;90.72
34185;BME280;20454;48.100;11.776;2022-12-18T10:48:52;96651.81;;;-3.51;90.98
34185;BME280;20454;48.100;11.776;2022-12-18T10:51:26;96651.19;;;-3.47;91.04
34185;BME280;20454;48.100;11.776;2022-12-18T10:54:06;96650.13;;;-3.46;89.73
34185;BME280;20454;48.100;11.776;2022-12-18T10:56:39;96663.09;;;-3.48;89.46
34185;BME280;20454;48.100;11.776;2022-12-18T10:59:07;96661.25;;;-3.47;89.86
34185;BME280;20454;48.100;11.776;2022-12-18T11:01:48;96657.88;;;-3.49;90.15
34185;BME280;20454;48.100;11.776;2022-12-18T11:04:33;96643.03;;;-3.53;89.86
34185;BME280;20454;48.100;11.776;2022-12-18T11:07:08;96648.88;;;-3.43;89.59
34185;BME280;20454;48.100;11.776;2022-12-18T11:09:38;96650.97;;;-3.45;89.52
34185;BME280;20454;48.100;11.776;2022-12-18T11:12:15;96660.19;;;-3.46;90.20
34185;BME280;20454;48.100;11.776;2022-12-18T11:14:45;96652.44;;;-3.43;91.51
34185;BME280;20454;48.100;11.776;2022-12-18T11:17:34;96662.50;;;-3.37;90.57
34185;BME280;20454;48.100;11.776;2022-12-18T11:23:00;96653.09;;;-3.34;89.15
34185;BME280;20454;48.100;11.776;2022-12-18T11:25:27;96659.59;;;-3.35;89.59
34185;BME280;20454;48.100;11.776;2022-12-18T11:28:04;96659.59;;;-3.35;90.03
34185;BME280;20454;48.100;11.776;2022-12-18T11:30:37;96666.88;;;-3.29;89.16
34185;BME280;20454;48.100;11.776;2022-12-18T11:33:10;96657.88;;;-3.36;89.35
34185;BME280;20454;48.100;11.776;2022-12-18T11:38:37;96679.66;;;-3.30;89.94
34185;BME280;20454;48.100;11.776;2022-12-18T11:41:21;96666.50;;;-3.26;90.43
34185;BME280;20454;48.100;11.776;2022-12-18T11:44:09;96656.66;;;-3.27;90.19
34185;BME280;20454;48.100;11.776;2022-12-18T11:46:46;96653.72;;;-3.26;88.94
34185;BME280;20454;48.100;11.776;2022-12-18T11:49:18;96643.88;;;-3.27;89.04
34185;BME280;20454;48.100;11.776;2022-12-18T11:51:55;96653.50;;;-3.24;89.95
34185;BME280;20454;48.100;11.776;2022-12-18T11:54:25;96640.75;;;-3.24;89.87
34185;BME280;20454;48.100;11.776;2022-12-18T11:56:58;96634.66;;;-3.26;89.59
34185;BME280;20454;48.100;11.776;2022-12-18T12:07:47;96635.72;;;-3.20;89.56
34185;BME280;20454;48.100;11.776;2022-12-18T12:10:36;96641.78;;;-3.18;89.74
34185;BME280;20454;48.100;11.776;2022-12-18T12:16:07;96649.97;;;-3.25;89.06
34185;BME280;20454;48.100;11.776;2022-12-18T12:21:25;96638.22;;;-3.38;88.70
34185;BME280;20454;48.100;11.776;2022-12-18T12:24:45;96628.81;;;-3.36;89.81
34185;BME280;20454;48.100;11.776;2022-12-18T12:30:10;96623.78;;;-3.45;89.45
34185;BME280;20454;48.100;11.776;2022-12-18T12:38:15;96614.56;;;-3.57;90.50
34185;BME280;20454;48.100;11.776;2022-12-18T12:40:49;96608.09;;;-3.56;90.82
34185;BME280;20454;48.100;11.776;2022-12-18T12:43:39;96609.16;;;-3.51;91.25
34185;BME280;20454;48.100;11.776;2022-12-18T12:46:11;96601.63;;;-3.55;90.92
34185;BME280;20454;48.100;11.776;2022-12-18T12:48:47;96605.16;;;-3.55;91.49
34185;BME280;20454;48.100;11.776;2022-12-18T12:51:25;96606.41;;;-3.57;91.80
34185;BME280;20454;48.100;11.776;2022-12-18T12:53:53;96609.16;;;-3.51;92.19
34185;BME280;20454;48.100;11.776;2022-12-18T12:56:20;96608.53;;;-3.46;92.46
34185;BME280;20454;48.100;11.776;2022-12-18T13:04:08;96614.16;;;-3.48;91.95
34185;BME280;20454;48.100;11.776;2022-12-18T13:06:49;96609.34;;;-3.46;92.44
34185;BME280;20454;48.100;11.776;2022-12-18T13:09:17;96620.03;;;-3.38;92.48
34185;BME280;20454;48.100;11.776;2022-12-18T13:11:46;96627.56;;;-3.33;91.41
34185;BME280;20454;48.100;11.776;2022-12-18T13:14:38;96632.59;;;-3.37;91.24
34185;BME280;20454;48.100;11.776;2022-12-18T13:17:37;96633.63;;;-3.38;91.43
34185;BME280;20454;48.100;11.776;2022-12-18T13:20:05;96633.00;;;-3.40;91.80
34185;BME280;20454;48.100;11.776;2022-12-18T13:24:59;96623.16;;;-3.41;91.29
34185;BME280;20454;48.100;11.776;2022-12-18T17:25:53;96611.50;;;-4.27;94.66
34185;BME280;20454;48.100;11.776;2022-12-18T17:28:19;96610.69;;;-4.28;94.39
34185;BME280;20454;48.100;11.776;2022-12-18T17:30:46;96608.34;;;-4.31;94.32
34185;BME280;20454;48.100;11.776;2022-12-18T17:33:11;96609.81;;;-4.35;93.98
34185;BME280;20454;48.100;11.776;2022-12-18T17:35:37;96612.09;;;-4.32;94.46
34185;BME280;20454;48.100;11.776;2022-12-18T17:38:03;96615.25;;;-4.35;94.02
34185;BME280;20454;48.100;11.776;2022-12-18T17:40:28;96620.03;;;-4.37;93.85
34185;BME280;20454;48.100;11.776;2022-12-18T17:42:56;96622.31;;;-4.40;94.09
34185;BME280;20454;48.100;11.776;2022-12-18T17:45:22;96614.97;;;-4.46;94.27
34185;BME280;20454;48.100;11.776;2022-12-18T17:47:48;96615.44;;;-4.36;93.93
34185;BME280;20454;48.100;11.776;2022-12-18T17:50:13;96608.97;;;-4.42;94.44
34185;BME280;20454;48.100;11.776;2022-12-18T17:52:39;96615.81;;;-4.39;94.71
34185;BME280;20454;48.100;11.776;2022-12-18T17:55:05;96611.44;;;-4.40;95.08
34185;BME280;20454;48.100;11.776;2022-12-18T17:57:31;96606.88;;;-4.40;95.15
34185;BME280;20454;48.100;11.776;2022-12-18T17:59:56;96616.06;;;-4.41;95.09
34185;BME280;20454;48.100;11.776;2022-12-18T18:02:22;96612.28;;;-4.40;94.98
34185;BME280;20454;48.100;11.776;2022-12-18T18:04:48;96612.09;;;-4.38;94.70
34185;BME280;20454;48.100;11.776;2022-12-18T18:07:13;96603.53;;;-4.42;94.42
34185;BME280;20454;48.100;11.776;2022-12-18T18:09:39;96608.97;;;-4.42;94.95
34185;BME280;20454;48.100;11.776;2022-12-18T18:12:05;96604.97;;;-4.39;95.32
34185;BME280;20454;48.100;11.776;2022-12-18T20:03:45;96553.94;;;-4.57;95.07
34185;BME280;20454;48.100;11.776;2022-12-18T20:08:59;96551.03;;;-4.55;95.26
34185;BME280;20454;48.100;11.776;2022-12-18T20:11:25;96557.09;;;-4.53;95.79
34185;BME280;20454;48.100;11.776;2022-12-18T20:13:50;96559.00;;;-4.54;95.47
34185;BME280;20454;48.100;11.776;2022-12-18T20:16:16;96551.91;;;-4.55;95.50
34185;BME280;20454;48.100;11.776;2022-12-18T20:18:42;96567.56;;;-4.50;94.88
34185;BME280;20454;48.100;11.776;2022-12-18T20:21:07;96556.28;;;-4.54;94.94
34185;BME280;20454;48.100;11.776;2022-12-18T20:23:33;96574.03;;;-4.51;95.58
34185;BME280;20454;48.100;11.776;2022-12-18T20:25:59;96570.47;;;-4.52;94.33
34185;BME280;20454;48.100;11.776;2022-12-18T20:28:25;96551.47;;;-4.58;94.38
34185;BME280;20454;48.100;11.776;2022-12-18T20:31:00;96553.31;;;-4.59;94.76
34185;BME280;20454;48.100;11.776;2022-12-18T20:33:26;96544.38;;;-4.59;95.04
34185;BME280;20454;48.100;11.776;2022-12-18T20:35:52;96549.38;;;-4.56;95.36
34185;BME280;20454;48.100;11.776;2022-12-18T20:38:18;96541.22;;;-4.56;95.09
34185;BME280;20454;48.100;11.776;2022-12-18T20:40:44;96544.38;;;-4.53;94.85
34185;BME280;20454;48.100;11.776;2022-12-18T20:43:09;96539.81;;;-4.52;94.56
34185;BME280;20454;48.100;11.776;2022-12-18T20:45:35;96542.91;;;-4.55;94.96
34185;BME280;20454;48.100;11.776;2022-12-18T20:48:01;96533.94;;;-4.56;95.13
34185;BME280;20454;48.100;11.776;2022-12-18T20:50:27;96531.66;;;-4.52;94.59
34185;BME280;20454;48.100;11.776;2022-12-18T20:52:53;96530.63;;;-4.51;94.52
34185;BME280;20454;48.100;11.776;2022-12-18T20:55:19;96537.91;;;-4.52;94.42
34185;BME280;20454;48.100;11.776;2022-12-18T20:57:44;96524.75;;;-4.55;95.35
34185;BME280;20454;48.100;11.776;2022-12-18T21:00:11;96523.91;;;-4.55;95.50
34185;BME280;20454;48.100;11.776;2022-12-18T21:02:37;96525.81;;;-4.56;94.80
34185;BME280;20454;48.100;11.776;2022-12-18T21:05:02;96539.56;;;-4.51;94.30
34185;BME280;20454;48.100;11.776;2022-12-18T21:07:28;96546.25;;;-4.53;95.19
34185;BME280;20454;48.100;11.776;2022-12-18T21:09:54;96537.66;;;-4.57;94.34
34185;BME280;20454;48.100;11.776;2022-12-18T21:12:19;96553.75;;;-4.55;95.16
34185;BME280;20454;48.100;11.776;2022-12-18T21:15:07;96552.09;;;-4.56;94.36
34185;BME280;20454;48.100;11.776;2022-12-18T21:17:33;96555.22;;;-4.53;95.13
34185;BME280;20454;48.100;11.776;2022-12-18T21:19:59;96531.63;;;-4.59;94.46
34185;BME280;20454;48.100;11.776;2022-12-18T21:22:25;96533.72;;;-4.54;95.15
34185;BME280;20454;48.100;11.776;2022-12-18T21:24:51;96530.63;;;-4.51;95.50
34185;BME280;20454;48.100;11.776;2022-12-18T21:27:17;96529.75;;;-4.52;95.47
34185;BME280;20454;48.100;11.776;2022-12-18T21:29:43;96523.50;;;-4.52;95.13
34185;BME280;20454;48.100;11.776;2022-12-18T21:32:09;96520.78;;;-4.52;95.16
34185;BME280;20454;48.100;11.776;2022-12-18T21:34:35;96523.94;;;-4.49;94.18
34185;BME280;20454;48.100;11.776;2022-12-18T21:37:01;96515.13;;;-4.51;94.36
34185;BME280;20454;48.100;11.776;2022-12-18T21:39:27;96517.84;;;-4.51;94.08
34185;BME280;20454;48.100;11.776;2022-12-18T21:41:53;96525.59;;;-4.48;93.93
34185;BME280;20454;48.100;11.776;2022-12-18T21:44:38;96524.13;;;-4.50;93.53
34185;BME280;20454;48.100;11.776;2022-12-18T21:47:03;96519.94;;;-4.53;94.09
34185;BME280;20454;48.100;11.776;2022-12-18T21:49:29;96513.47;;;-4.52;93.58
34185;BME280;20454;48.100;11.776;2022-12-18T21:51:57;96513.47;;;-4.52;93.54
34185;BME280;20454;48.100;11.776;2022-12-18T21:54:24;96517.84;;;-4.51;93.15
34185;BME280;20454;48.100;11.776;2022-12-18T21:56:58;96503.25;;;-4.56;93.73
34185;BME280;20454;48.100;11.776;2022-12-18T21:59:26;96509.09;;;-4.46;93.65
34185;BME280;20454;48.100;11.776;2022-12-18T22:01:54;96504.94;;;-4.49;93.59
34185;BME280;20454;48.100;11.776;2022-12-18T22:04:20;96486.34;;;-4.52;92.53
34185;BME280;20454;48.100;11.776;2022-12-18T22:06:46;96492.59;;;-4.51;93.36
34185;BME280;20454;48.100;11.776;2022-12-18T22:09:14;96481.09;;;-4.53;92.80
34185;BME280;20454;48.100;11.776;2022-12-18T22:11:40;96473.81;;;-4.59;92.92
34185;BME280;20454;48.100;11.776;2022-12-18T22:14:06;96475.66;;;-4.60;92.45
34185;BME280;20454;48.100;11.776;2022-12-18T22:16:32;96489.44;;;-4.61;92.21
34185;BME280;20454;48.100;11.776;2022-12-18T22:18:58;96499.88;;;-4.65;91.23
34185;BME280;20454;48.100;11.776;2022-12-18T22:21:26;96506.53;;;-4.67;91.97
34185;BME280;20454;48.100;11.776;2022-12-18T22:23:59;96513.84;;;-4.68;92.13
34185;BME280;20454;48.100;11.776;2022-12-18T22:26:27;96519.66;;;-4.71;91.49
34185;BME280;20454;48.100;11.776;2022-12-18T22:28:53;96523.66;;;-4.73;92.03
34185;BME280;20454;48.100;11.776;2022-12-18T22:31:37;96526.38;;;-4.73;92.49
34185;BME280;20454;48.100;11.776;2022-12-18T22:34:03;96520.09;;;-4.73;91.65
34185;BME280;20454;48.100;11.776;2022-12-18T22:36:40;96518.00;;;-4.72;92.12
34185;BME280;20454;48.100;11.776;2022-12-18T22:39:10;96516.75;;;-4.69;92.37
34185;BME280;20454;48.100;11.776;2022-12-18T22:41:36;96511.97;;;-4.67;92.01
34185;BME280;20454;48.100;11.776;2022-12-18T22:44:02;96514.66;;;-4.67;92.20
34185;BME280;20454;48.100;11.776;2022-12-18T22:46:32;96510.09;;;-4.67;92.42
34185;BME280;20454;48.100;11.776;2022-12-18T22:48:58;96516.16;;;-4.65;92.51
34185;BME280;20454;48.100;11.776;2022-12-18T22:51:24;96506.75;;;-4.62;92.29
34185;BME280;20454;48.100;11.776;2022-12-18T22:53:50;96502.81;;;-4.60;92.20
34185;BME280;20454;48.100;11.776;2022-12-18T22:56:15;96486.53;;;-4.60;92.63
34185;BME280;20454;48.100;11.776;2022-12-18T22:58:41;96496.13;;;-4.57;92.83
34185;BME280;20454;48.100;11.776;2022-12-18T23:01:20;96500.31;;;-4.55;92.19
34185;BME280;20454;48.100;11.776;2022-12-18T23:03:46;96495.28;;;-4.58;92.06
34185;BME280;20454;48.100;11.776;2022-12-18T23:06:12;96486.53;;;-4.60;92.60
34185;BME280;20454;48.100;11.776;2022-12-18T23:08:38;96481.72;;;-4.58;92.97
34185;BME280;20454;48.100;11.776;2022-12-18T23:11:04;96484.22;;;-4.56;92.96
34185;BME280;20454;48.100;11.776;2022-12-18T23:13:31;96475.66;;;-4.60;92.61
34185;BME280;20454;48.100;11.776;2022-12-18T23:15:57;96478.81;;;-4.56;92.74
34185;BME280;20454;48.100;11.776;2022-12-18T23:18:23;96474.00;;;-4.61;91.95
34185;BME280;20454;48.100;11.776;2022-12-18T23:20:48;96475.66;;;-4.60;92.57
34185;BME280;20454;48.100;11.776;2022-12-18T23:23:14;96468.16;;;-4.64;92.51
34185;BME280;20454;48.100;11.776;2022-12-18T23:25:40;96471.28;;;-4.61;93.10
34185;BME280;20454;48.100;11.776;2022-12-18T23:28:05;96464.81;;;-4.60;93.09
34185;BME280;20454;48.100;11.776;2022-12-18T23:30:31;96461.69;;;-4.57;92.23
34185;BME280;20454;48.100;11.776;2022-12-18T23:32:57;96453.97;;;-4.60;92.58
34185;BME280;20454;48.100;11.776;2022-12-18T23:35:23;96453.97;;;-4.60;92.80
34185;BME280;20454;48.100;11.776;2022-12-18T23:37:49;96434.34;;;-4.62;93.15
34185;BME280;20454;48.100;11.776;2022-12-18T23:40:15;96441.25;;;-4.59;92.68
34185;BME280;20454;48.100;11.776;2022-12-18T23:42:40;96434.97;;;-4.60;92.77
34185;BME280;20454;48.100;11.776;2022-12-18T23:45:06;96425.78;;;-4.59;92.93
34185;BME280;20454;48.100;11.776;2022-12-18T23:47:32;96422.44;;;-4.61;92.80
34185;BME280;20454;48.100;11.776;2022-12-18T23:49:58;96419.72;;;-4.61;92.97
34185;BME280;20454;48.100;11.776;2022-12-18T23:52:23;96419.28;;;-4.58;93.16
34185;BME280;20454;48.100;11.776;2022-12-18T23:54:49;96428.50;;;-4.59;92.98
34185;BME280;20454;48.100;11.776;2022-12-18T23:57:15;96427.66;;;-4.59;93.66
34185;BME280;20454;48.100;11.776;2022-12-18T23:59:41;96440.81;;;-4.56;94.01
